SDM6876 URSS-UNKL
Flight info
| Callsign | SDM6876 |
|---|---|
| Flight time | N/A |
| Altitude | 29000 |
| Route | IRGID1S/24 BINOL DCT DINAP G926 RATKI/K0854F350 DCT KZ R227 AKT DCT OGANU N55 ARKER/K0841F370 N55 DAKIN G828 NN A300 RANET RANET2R |
| Aircraft | A319/M-SDE3FGHIRWY/LB1 |
Departure
| Time | N/A |
|---|---|
| Airport | Sochi International Airport (URSS) |
Arrival
| Time | 2026-05-06 22:03 |
|---|---|
| Airport | Krasnoyarsk International Airport (UNKL) |
| Time | Latitude | Longitude | Altitude | Speed | Heading |
|---|---|---|---|---|---|
| 2026-05-06 20:04 | 52.45687 | 68.15404 | 35058 ft | 497 kts | 53° |
| 2026-05-06 20:04 | 52.47699 | 68.20027 | 35058 ft | 497 kts | 53° |
| 2026-05-06 20:04 | 52.51714 | 68.29282 | 35058 ft | 497 kts | 53° |
| 2026-05-06 20:05 | 52.55715 | 68.38544 | 35058 ft | 497 kts | 54° |
| 2026-05-06 20:05 | 52.59680 | 68.47759 | 35057 ft | 497 kts | 54° |
| 2026-05-06 20:06 | 52.63670 | 68.57069 | 35057 ft | 497 kts | 53° |
| 2026-05-06 20:06 | 52.67627 | 68.66335 | 35056 ft | 497 kts | 54° |
| 2026-05-06 20:07 | 52.71589 | 68.75673 | 35057 ft | 497 kts | 54° |
| 2026-05-06 20:07 | 52.75527 | 68.84988 | 35058 ft | 497 kts | 54° |
| 2026-05-06 20:08 | 52.79492 | 68.94385 | 35059 ft | 496 kts | 54° |
| 2026-05-06 20:08 | 52.83416 | 69.03718 | 35058 ft | 494 kts | 54° |
| 2026-05-06 20:09 | 52.87326 | 69.13045 | 35059 ft | 492 kts | 53° |
| 2026-05-06 20:09 | 52.91192 | 69.22295 | 35058 ft | 491 kts | 53° |
| 2026-05-06 20:10 | 52.95058 | 69.31576 | 35057 ft | 491 kts | 53° |
| 2026-05-06 20:10 | 52.98941 | 69.40938 | 35057 ft | 491 kts | 53° |
| 2026-05-06 20:11 | 53.02811 | 69.50304 | 35056 ft | 493 kts | 53° |
| 2026-05-06 20:11 | 53.06670 | 69.59678 | 35056 ft | 495 kts | 53° |
| 2026-05-06 20:12 | 53.10580 | 69.69214 | 35054 ft | 496 kts | 54° |
| 2026-05-06 20:12 | 53.14451 | 69.78650 | 35057 ft | 497 kts | 54° |
| 2026-05-06 20:13 | 53.18338 | 69.88169 | 35057 ft | 498 kts | 54° |
| 2026-05-06 20:13 | 53.22231 | 69.97757 | 35058 ft | 498 kts | 54° |
| 2026-05-06 20:14 | 53.26102 | 70.07336 | 35058 ft | 498 kts | 54° |
| 2026-05-06 20:14 | 53.29959 | 70.16920 | 35058 ft | 497 kts | 54° |
| 2026-05-06 20:15 | 53.33814 | 70.26534 | 35058 ft | 498 kts | 54° |
| 2026-05-06 20:15 | 53.37641 | 70.36116 | 35058 ft | 498 kts | 54° |
| 2026-05-06 20:16 | 53.41480 | 70.45765 | 35056 ft | 498 kts | 54° |
| 2026-05-06 20:16 | 53.45309 | 70.55423 | 35044 ft | 498 kts | 54° |
| 2026-05-06 20:17 | 53.49113 | 70.65060 | 35037 ft | 498 kts | 55° |
| 2026-05-06 20:17 | 53.52903 | 70.74721 | 35033 ft | 498 kts | 56° |
| 2026-05-06 20:18 | 53.56717 | 70.84476 | 35032 ft | 498 kts | 56° |
| 2026-05-06 20:18 | 53.60498 | 70.94151 | 35032 ft | 500 kts | 57° |
| 2026-05-06 20:19 | 53.64314 | 71.03957 | 35031 ft | 501 kts | 57° |
| 2026-05-06 20:19 | 53.68102 | 71.13752 | 35026 ft | 501 kts | 57° |
| 2026-05-06 20:20 | 53.71879 | 71.23557 | 35017 ft | 500 kts | 57° |
| 2026-05-06 20:20 | 53.75660 | 71.33400 | 35010 ft | 501 kts | 57° |
| 2026-05-06 20:21 | 53.79434 | 71.43264 | 35006 ft | 501 kts | 57° |
| 2026-05-06 20:21 | 53.83210 | 71.53167 | 35004 ft | 501 kts | 57° |
| 2026-05-06 20:22 | 53.86960 | 71.63044 | 35004 ft | 501 kts | 57° |
| 2026-05-06 20:22 | 53.90693 | 71.72931 | 35005 ft | 500 kts | 58° |
| 2026-05-06 20:23 | 53.94440 | 71.82897 | 35005 ft | 501 kts | 58° |
| 2026-05-06 20:23 | 53.98156 | 71.92806 | 35005 ft | 501 kts | 58° |
| 2026-05-06 20:24 | 54.01892 | 72.02798 | 35005 ft | 501 kts | 58° |
| 2026-05-06 20:24 | 54.05600 | 72.12756 | 35005 ft | 501 kts | 58° |
| 2026-05-06 20:25 | 54.09316 | 72.22766 | 35005 ft | 501 kts | 58° |
| 2026-05-06 20:25 | 54.13031 | 72.32772 | 35004 ft | 501 kts | 58° |
| 2026-05-06 20:26 | 54.16383 | 72.43071 | 35006 ft | 499 kts | 66° |
| 2026-05-06 20:26 | 54.19076 | 72.53983 | 35006 ft | 498 kts | 70° |
| 2026-05-06 20:27 | 54.21578 | 72.64932 | 35005 ft | 498 kts | 70° |
| 2026-05-06 20:27 | 54.24092 | 72.75946 | 35004 ft | 498 kts | 71° |
| 2026-05-06 20:28 | 54.26602 | 72.86924 | 35004 ft | 498 kts | 71° |
| 2026-05-06 20:28 | 54.29115 | 72.97939 | 35005 ft | 498 kts | 71° |
| 2026-05-06 20:29 | 54.31613 | 73.08948 | 35007 ft | 495 kts | 70° |
| 2026-05-06 20:29 | 54.34091 | 73.19914 | 35008 ft | 490 kts | 70° |
| 2026-05-06 20:30 | 54.37749 | 73.36200 | 35005 ft | 489 kts | 70° |
| 2026-05-06 20:31 | 54.40167 | 73.47035 | 35005 ft | 489 kts | 70° |
| 2026-05-06 20:31 | 54.42573 | 73.57877 | 35005 ft | 488 kts | 70° |
| 2026-05-06 20:32 | 54.44984 | 73.68806 | 35003 ft | 489 kts | 71° |
| 2026-05-06 20:32 | 54.47357 | 73.79639 | 35004 ft | 488 kts | 71° |
| 2026-05-06 20:33 | 54.49749 | 73.90606 | 35003 ft | 488 kts | 71° |
| 2026-05-06 20:33 | 54.52114 | 74.01493 | 35004 ft | 488 kts | 71° |
| 2026-05-06 20:34 | 54.54473 | 74.12405 | 35005 ft | 489 kts | 71° |
| 2026-05-06 20:34 | 54.56839 | 74.23405 | 35004 ft | 489 kts | 71° |
| 2026-05-06 20:35 | 54.59178 | 74.34340 | 35004 ft | 488 kts | 71° |
| 2026-05-06 20:35 | 54.61507 | 74.45285 | 35004 ft | 488 kts | 71° |
| 2026-05-06 20:36 | 54.63826 | 74.56244 | 35005 ft | 488 kts | 71° |
| 2026-05-06 20:36 | 54.66148 | 74.67278 | 35002 ft | 488 kts | 72° |
| 2026-05-06 20:37 | 54.68449 | 74.78298 | 35005 ft | 488 kts | 72° |
| 2026-05-06 20:37 | 54.70738 | 74.89308 | 35004 ft | 488 kts | 72° |
| 2026-05-06 20:38 | 54.73013 | 75.00311 | 35004 ft | 488 kts | 71° |
| 2026-05-06 20:38 | 54.75275 | 75.11303 | 35006 ft | 486 kts | 71° |
| 2026-05-06 20:39 | 54.77529 | 75.22295 | 35004 ft | 486 kts | 71° |
| 2026-05-06 20:39 | 54.79771 | 75.33288 | 35005 ft | 486 kts | 71° |
| 2026-05-06 20:40 | 54.82016 | 75.44361 | 35003 ft | 486 kts | 71° |
| 2026-05-06 20:40 | 54.84228 | 75.55335 | 35004 ft | 486 kts | 71° |
| 2026-05-06 20:41 | 54.86440 | 75.66373 | 35002 ft | 485 kts | 72° |
| 2026-05-06 20:41 | 54.88636 | 75.77428 | 35004 ft | 486 kts | 72° |
| 2026-05-06 20:42 | 54.90823 | 75.88510 | 35004 ft | 487 kts | 72° |
| 2026-05-06 20:42 | 54.93012 | 75.99638 | 35004 ft | 488 kts | 72° |
| 2026-05-06 20:43 | 54.95198 | 76.10797 | 35003 ft | 489 kts | 72° |
| 2026-05-06 20:43 | 54.97385 | 76.22021 | 35004 ft | 491 kts | 72° |
| 2026-05-06 20:44 | 54.99563 | 76.33262 | 35001 ft | 492 kts | 72° |
| 2026-05-06 20:44 | 55.01734 | 76.44538 | 35002 ft | 493 kts | 72° |
| 2026-05-06 20:45 | 55.03898 | 76.55838 | 35003 ft | 494 kts | 72° |
| 2026-05-06 20:45 | 55.06063 | 76.67220 | 35002 ft | 495 kts | 73° |
| 2026-05-06 20:46 | 55.08211 | 76.78597 | 35004 ft | 495 kts | 73° |
| 2026-05-06 20:46 | 55.10345 | 76.89985 | 35003 ft | 495 kts | 72° |
| 2026-05-06 20:47 | 55.12488 | 77.01327 | 35004 ft | 494 kts | 72° |
| 2026-05-06 20:47 | 55.14624 | 77.12720 | 35004 ft | 493 kts | 71° |
| 2026-05-06 20:48 | 55.16738 | 77.24092 | 35005 ft | 493 kts | 72° |
| 2026-05-06 20:48 | 55.18833 | 77.35509 | 35004 ft | 493 kts | 72° |
| 2026-05-06 20:49 | 55.20892 | 77.46812 | 35006 ft | 491 kts | 72° |
| 2026-05-06 20:49 | 55.22975 | 77.58271 | 35003 ft | 492 kts | 72° |
| 2026-05-06 20:50 | 55.25026 | 77.69668 | 35002 ft | 492 kts | 72° |
| 2026-05-06 20:50 | 55.27061 | 77.81057 | 35004 ft | 492 kts | 73° |
| 2026-05-06 20:51 | 55.29098 | 77.92531 | 34992 ft | 492 kts | 72° |
| 2026-05-06 20:51 | 55.31127 | 78.04004 | 34973 ft | 493 kts | 73° |
| 2026-05-06 20:52 | 55.33149 | 78.15512 | 34960 ft | 493 kts | 73° |
| 2026-05-06 20:52 | 55.35159 | 78.27037 | 34952 ft | 493 kts | 72° |
| 2026-05-06 20:53 | 55.37201 | 78.38549 | 34950 ft | 493 kts | 72° |
| 2026-05-06 20:53 | 55.39272 | 78.50002 | 34951 ft | 493 kts | 72° |
| 2026-05-06 20:54 | 55.41336 | 78.61494 | 34948 ft | 493 kts | 72° |
| 2026-05-06 20:54 | 55.43393 | 78.73039 | 34948 ft | 493 kts | 73° |
| 2026-05-06 20:55 | 55.45429 | 78.84611 | 34949 ft | 493 kts | 73° |
| 2026-05-06 20:55 | 55.47448 | 78.96128 | 34949 ft | 493 kts | 73° |
| 2026-05-06 20:56 | 55.49453 | 79.07643 | 34952 ft | 489 kts | 72° |
| 2026-05-06 20:56 | 55.51438 | 79.19096 | 34949 ft | 485 kts | 72° |
| 2026-05-06 20:57 | 55.53402 | 79.30489 | 34952 ft | 483 kts | 72° |
| 2026-05-06 20:57 | 55.55345 | 79.41811 | 34951 ft | 482 kts | 73° |
| 2026-05-06 20:58 | 55.57283 | 79.53206 | 34949 ft | 482 kts | 72° |
| 2026-05-06 20:58 | 55.59196 | 79.64501 | 34949 ft | 481 kts | 72° |
| 2026-05-06 20:59 | 55.61102 | 79.75889 | 34947 ft | 482 kts | 73° |
| 2026-05-06 20:59 | 55.62997 | 79.87262 | 34950 ft | 482 kts | 73° |
| 2026-05-06 21:00 | 55.64893 | 79.98632 | 34949 ft | 481 kts | 73° |
| 2026-05-06 21:00 | 55.66793 | 80.09992 | 34946 ft | 482 kts | 73° |
| 2026-05-06 21:01 | 55.68692 | 80.21413 | 34950 ft | 482 kts | 73° |
| 2026-05-06 21:01 | 55.70573 | 80.32801 | 34946 ft | 482 kts | 73° |
| 2026-05-06 21:02 | 55.72448 | 80.44255 | 34921 ft | 481 kts | 73° |
| 2026-05-06 21:02 | 55.74303 | 80.55647 | 34903 ft | 482 kts | 73° |
| 2026-05-06 21:03 | 55.76154 | 80.67085 | 34896 ft | 482 kts | 74° |
| 2026-05-06 21:03 | 55.77988 | 80.78516 | 34895 ft | 482 kts | 74° |
| 2026-05-06 21:04 | 55.79803 | 80.89912 | 34893 ft | 481 kts | 74° |
| 2026-05-06 21:04 | 55.81620 | 81.01390 | 34894 ft | 479 kts | 73° |
| 2026-05-06 21:05 | 55.83413 | 81.12769 | 34897 ft | 475 kts | 73° |
| 2026-05-06 21:05 | 55.85184 | 81.24068 | 34895 ft | 474 kts | 73° |
| 2026-05-06 21:06 | 55.86947 | 81.35395 | 34896 ft | 474 kts | 73° |
| 2026-05-06 21:06 | 55.88695 | 81.46719 | 34893 ft | 474 kts | 73° |
| 2026-05-06 21:07 | 55.90425 | 81.58006 | 34891 ft | 474 kts | 73° |
| 2026-05-06 21:07 | 55.92157 | 81.69386 | 34896 ft | 474 kts | 75° |
| 2026-05-06 21:08 | 55.93868 | 81.80735 | 34896 ft | 475 kts | 75° |
| 2026-05-06 21:08 | 55.95575 | 81.92114 | 34895 ft | 474 kts | 74° |
| 2026-05-06 21:09 | 55.97274 | 82.03479 | 34896 ft | 475 kts | 74° |
| 2026-05-06 21:09 | 55.98964 | 82.14887 | 34894 ft | 474 kts | 74° |
| 2026-05-06 21:10 | 56.00635 | 82.26273 | 34894 ft | 475 kts | 75° |
| 2026-05-06 21:10 | 56.02300 | 82.37707 | 34894 ft | 475 kts | 74° |
| 2026-05-06 21:11 | 56.03960 | 82.49136 | 34893 ft | 474 kts | 74° |
| 2026-05-06 21:11 | 56.05598 | 82.60524 | 34891 ft | 474 kts | 74° |
| 2026-05-06 21:12 | 56.07235 | 82.72016 | 34894 ft | 475 kts | 76° |
| 2026-05-06 21:12 | 56.08732 | 82.83504 | 34895 ft | 474 kts | 76° |
| 2026-05-06 21:13 | 56.10208 | 82.95050 | 34896 ft | 472 kts | 76° |
| 2026-05-06 21:13 | 56.11695 | 83.06452 | 34897 ft | 468 kts | 76° |
| 2026-05-06 21:14 | 56.13155 | 83.17808 | 34894 ft | 468 kts | 76° |
| 2026-05-06 21:14 | 56.14595 | 83.29199 | 34893 ft | 468 kts | 76° |
| 2026-05-06 21:15 | 56.16043 | 83.40556 | 34895 ft | 467 kts | 76° |
| 2026-05-06 21:15 | 56.17554 | 83.51831 | 34895 ft | 467 kts | 75° |
| 2026-05-06 21:16 | 56.19069 | 83.63226 | 34896 ft | 467 kts | 76° |
| 2026-05-06 21:16 | 56.20551 | 83.74544 | 34893 ft | 467 kts | 76° |
| 2026-05-06 21:17 | 56.22034 | 83.85980 | 34905 ft | 467 kts | 76° |
| 2026-05-06 21:17 | 56.23498 | 83.97348 | 34915 ft | 467 kts | 76° |
| 2026-05-06 21:18 | 56.24939 | 84.08749 | 34919 ft | 467 kts | 77° |
| 2026-05-06 21:18 | 56.26357 | 84.20177 | 34920 ft | 467 kts | 77° |
| 2026-05-06 21:19 | 56.27771 | 84.31641 | 34921 ft | 467 kts | 77° |
| 2026-05-06 21:19 | 56.29162 | 84.43002 | 34922 ft | 467 kts | 77° |
| 2026-05-06 21:20 | 56.30549 | 84.54420 | 34921 ft | 467 kts | 77° |
| 2026-05-06 21:20 | 56.31929 | 84.65877 | 34920 ft | 467 kts | 77° |
| 2026-05-06 21:21 | 56.33287 | 84.77277 | 34922 ft | 467 kts | 78° |
| 2026-05-06 21:21 | 56.34647 | 84.88779 | 34920 ft | 467 kts | 77° |
| 2026-05-06 21:22 | 56.35990 | 85.00243 | 34921 ft | 467 kts | 77° |
| 2026-05-06 21:22 | 56.37314 | 85.11717 | 34922 ft | 467 kts | 78° |
| 2026-05-06 21:23 | 56.38195 | 85.23298 | 34921 ft | 466 kts | 84° |
| 2026-05-06 21:23 | 56.38375 | 85.35039 | 34921 ft | 467 kts | 88° |
| 2026-05-06 21:24 | 56.38329 | 85.46756 | 34922 ft | 467 kts | 89° |
| 2026-05-06 21:24 | 56.38271 | 85.58508 | 34923 ft | 466 kts | 89° |
| 2026-05-06 21:25 | 56.38211 | 85.70171 | 34919 ft | 467 kts | 89° |
| 2026-05-06 21:25 | 56.38144 | 85.81924 | 34921 ft | 467 kts | 89° |
| 2026-05-06 21:26 | 56.38060 | 85.93610 | 34920 ft | 467 kts | 90° |
| 2026-05-06 21:26 | 56.37971 | 86.05375 | 34922 ft | 467 kts | 89° |
| 2026-05-06 21:27 | 56.37893 | 86.17025 | 34920 ft | 467 kts | 89° |
| 2026-05-06 21:27 | 56.37803 | 86.28776 | 34919 ft | 467 kts | 89° |
| 2026-05-06 21:28 | 56.37704 | 86.40448 | 34914 ft | 467 kts | 89° |
| 2026-05-06 21:28 | 56.37588 | 86.52225 | 34909 ft | 468 kts | 89° |
| 2026-05-06 21:29 | 56.37465 | 86.63905 | 34902 ft | 467 kts | 89° |
| 2026-05-06 21:29 | 56.37330 | 86.75593 | 34897 ft | 467 kts | 90° |
| 2026-05-06 21:30 | 56.37183 | 86.87337 | 34897 ft | 467 kts | 90° |
| 2026-05-06 21:30 | 56.37023 | 86.99008 | 34895 ft | 467 kts | 90° |
| 2026-05-06 21:31 | 56.36853 | 87.10720 | 34895 ft | 464 kts | 89° |
| 2026-05-06 21:31 | 56.36675 | 87.22285 | 34893 ft | 462 kts | 89° |
| 2026-05-06 21:32 | 56.36490 | 87.33894 | 34894 ft | 462 kts | 89° |
| 2026-05-06 21:32 | 56.36191 | 87.51202 | 34894 ft | 462 kts | 89° |
| 2026-05-06 21:33 | 56.35973 | 87.62798 | 34894 ft | 462 kts | 89° |
| 2026-05-06 21:33 | 56.35750 | 87.74343 | 34896 ft | 462 kts | 90° |
| 2026-05-06 21:34 | 56.35514 | 87.85885 | 34892 ft | 462 kts | 90° |
| 2026-05-06 21:34 | 56.35265 | 87.97484 | 34894 ft | 462 kts | 90° |
| 2026-05-06 21:35 | 56.35007 | 88.09038 | 34895 ft | 462 kts | 90° |
| 2026-05-06 21:35 | 56.34738 | 88.20597 | 34893 ft | 462 kts | 90° |
| 2026-05-06 21:36 | 56.34454 | 88.32196 | 34895 ft | 462 kts | 90° |
| 2026-05-06 21:36 | 56.34166 | 88.43720 | 34892 ft | 462 kts | 90° |
| 2026-05-06 21:37 | 56.33863 | 88.55350 | 34895 ft | 462 kts | 90° |
| 2026-05-06 21:37 | 56.33551 | 88.66891 | 34892 ft | 462 kts | 91° |
| 2026-05-06 21:38 | 56.33229 | 88.78413 | 34894 ft | 462 kts | 91° |
| 2026-05-06 21:38 | 56.32891 | 88.89981 | 34896 ft | 461 kts | 90° |
| 2026-05-06 21:39 | 56.32731 | 88.95718 | 34704 ft | 462 kts | 90° |
| 2026-05-06 21:39 | 56.32576 | 89.01520 | 34061 ft | 462 kts | 89° |
| 2026-05-06 21:39 | 56.32420 | 89.07310 | 33448 ft | 460 kts | 89° |
| 2026-05-06 21:39 | 56.32265 | 89.12988 | 32852 ft | 456 kts | 89° |
| 2026-05-06 21:40 | 56.32108 | 89.18658 | 32248 ft | 452 kts | 90° |
| 2026-05-06 21:40 | 56.31949 | 89.24306 | 31577 ft | 451 kts | 90° |
| 2026-05-06 21:40 | 56.31787 | 89.29896 | 30849 ft | 452 kts | 89° |
| 2026-05-06 21:40 | 56.31623 | 89.35546 | 30099 ft | 452 kts | 90° |
| 2026-05-06 21:41 | 56.31456 | 89.41163 | 29341 ft | 452 kts | 90° |
| 2026-05-06 21:41 | 56.31285 | 89.46791 | 28578 ft | 451 kts | 90° |
| 2026-05-06 21:41 | 56.31110 | 89.52440 | 27779 ft | 451 kts | 90° |
| 2026-05-06 21:41 | 56.30932 | 89.58083 | 27067 ft | 448 kts | 90° |
| 2026-05-06 21:42 | 56.30752 | 89.63631 | 26593 ft | 440 kts | 90° |
| 2026-05-06 21:42 | 56.30574 | 89.69058 | 26091 ft | 434 kts | 91° |
| 2026-05-06 21:42 | 56.30398 | 89.74394 | 25585 ft | 428 kts | 91° |
| 2026-05-06 21:42 | 56.30221 | 89.79698 | 25085 ft | 422 kts | 91° |
| 2026-05-06 21:43 | 56.30045 | 89.84950 | 24580 ft | 417 kts | 91° |
| 2026-05-06 21:43 | 56.29868 | 89.90177 | 24061 ft | 413 kts | 91° |
| 2026-05-06 21:43 | 56.29693 | 89.95273 | 23555 ft | 409 kts | 91° |
| 2026-05-06 21:43 | 56.29517 | 90.00320 | 23059 ft | 404 kts | 91° |
| 2026-05-06 21:44 | 56.29339 | 90.05375 | 22555 ft | 401 kts | 91° |
| 2026-05-06 21:44 | 56.29162 | 90.10339 | 22048 ft | 398 kts | 91° |
| 2026-05-06 21:44 | 56.28983 | 90.15301 | 21539 ft | 394 kts | 91° |
| 2026-05-06 21:44 | 56.28807 | 90.20145 | 21040 ft | 392 kts | 91° |
| 2026-05-06 21:45 | 56.28627 | 90.25046 | 20540 ft | 389 kts | 91° |
| 2026-05-06 21:45 | 56.28448 | 90.29884 | 20043 ft | 386 kts | 91° |
| 2026-05-06 21:45 | 56.28267 | 90.34668 | 19550 ft | 384 kts | 92° |
| 2026-05-06 21:45 | 56.28083 | 90.39450 | 19055 ft | 381 kts | 92° |
| 2026-05-06 21:46 | 56.27902 | 90.44151 | 18563 ft | 379 kts | 92° |
| 2026-05-06 21:46 | 56.27717 | 90.48865 | 18072 ft | 377 kts | 92° |
| 2026-05-06 21:46 | 56.27533 | 90.53522 | 17583 ft | 375 kts | 92° |
| 2026-05-06 21:46 | 56.27358 | 90.58218 | 17088 ft | 373 kts | 91° |
| 2026-05-06 21:47 | 56.27301 | 90.62830 | 16600 ft | 370 kts | 87° |
| 2026-05-06 21:47 | 56.27380 | 90.67457 | 16115 ft | 368 kts | 86° |
| 2026-05-06 21:47 | 56.27489 | 90.72021 | 15629 ft | 367 kts | 86° |
| 2026-05-06 21:47 | 56.27600 | 90.76605 | 15138 ft | 365 kts | 86° |
| 2026-05-06 21:48 | 56.27709 | 90.81163 | 14646 ft | 364 kts | 86° |
| 2026-05-06 21:48 | 56.27813 | 90.85686 | 14157 ft | 362 kts | 86° |
| 2026-05-06 21:48 | 56.27915 | 90.90174 | 13670 ft | 360 kts | 86° |
| 2026-05-06 21:48 | 56.28014 | 90.94673 | 13184 ft | 358 kts | 86° |
| 2026-05-06 21:49 | 56.28109 | 90.99100 | 12704 ft | 355 kts | 86° |
| 2026-05-06 21:49 | 56.28202 | 91.03543 | 12225 ft | 352 kts | 86° |
| 2026-05-06 21:49 | 56.28291 | 91.07873 | 11761 ft | 349 kts | 86° |
| 2026-05-06 21:49 | 56.28374 | 91.12254 | 11289 ft | 346 kts | 88° |
| 2026-05-06 21:50 | 56.28348 | 91.16558 | 10826 ft | 343 kts | 90° |
| 2026-05-06 21:50 | 56.28277 | 91.20839 | 10422 ft | 338 kts | 90° |
| 2026-05-06 21:50 | 56.28201 | 91.24957 | 10291 ft | 323 kts | 90° |
| 2026-05-06 21:50 | 56.28127 | 91.28893 | 10171 ft | 309 kts | 90° |
| 2026-05-06 21:51 | 56.28055 | 91.32655 | 10067 ft | 295 kts | 90° |
| 2026-05-06 21:51 | 56.27986 | 91.36261 | 9977 ft | 282 kts | 90° |
| 2026-05-06 21:51 | 56.27919 | 91.39729 | 9899 ft | 271 kts | 90° |
| 2026-05-06 21:51 | 56.27854 | 91.43114 | 9573 ft | 271 kts | 90° |
| 2026-05-06 21:52 | 56.27789 | 91.46486 | 9250 ft | 269 kts | 90° |
| 2026-05-06 21:52 | 56.27724 | 91.49822 | 8937 ft | 268 kts | 90° |
| 2026-05-06 21:52 | 56.27658 | 91.53184 | 8626 ft | 266 kts | 90° |
| 2026-05-06 21:52 | 56.27591 | 91.56467 | 8324 ft | 264 kts | 90° |
| 2026-05-06 21:53 | 56.27524 | 91.59750 | 8023 ft | 263 kts | 90° |
| 2026-05-06 21:53 | 56.27455 | 91.63037 | 7722 ft | 261 kts | 90° |
| 2026-05-06 21:53 | 56.27387 | 91.66283 | 7424 ft | 260 kts | 91° |
| 2026-05-06 21:53 | 56.27317 | 91.69531 | 7127 ft | 258 kts | 91° |
| 2026-05-06 21:54 | 56.27248 | 91.72695 | 6999 ft | 249 kts | 91° |
| 2026-05-06 21:54 | 56.27181 | 91.75755 | 6867 ft | 241 kts | 91° |
| 2026-05-06 21:54 | 56.27113 | 91.78779 | 6637 ft | 237 kts | 91° |
| 2026-05-06 21:54 | 56.27048 | 91.81678 | 6411 ft | 233 kts | 91° |
| 2026-05-06 21:55 | 56.26982 | 91.84579 | 6195 ft | 229 kts | 91° |
| 2026-05-06 21:55 | 56.26918 | 91.87409 | 5978 ft | 225 kts | 91° |
| 2026-05-06 21:55 | 56.26852 | 91.90234 | 5768 ft | 221 kts | 91° |
| 2026-05-06 21:55 | 56.26789 | 91.92978 | 5561 ft | 218 kts | 91° |
| 2026-05-06 21:56 | 56.26725 | 91.95670 | 5362 ft | 215 kts | 91° |
| 2026-05-06 21:56 | 56.26661 | 91.98306 | 5163 ft | 210 kts | 91° |
| 2026-05-06 21:56 | 56.26597 | 92.00919 | 4966 ft | 206 kts | 91° |
| 2026-05-06 21:56 | 56.26532 | 92.03495 | 4772 ft | 201 kts | 91° |
| 2026-05-06 21:57 | 56.26472 | 92.05962 | 4583 ft | 197 kts | 91° |
| 2026-05-06 21:57 | 56.26398 | 92.08401 | 4408 ft | 192 kts | 94° |
| 2026-05-06 21:57 | 56.26185 | 92.10774 | 4274 ft | 193 kts | 103° |
| 2026-05-06 21:57 | 56.25803 | 92.13065 | 4151 ft | 193 kts | 107° |
| 2026-05-06 21:58 | 56.25366 | 92.15346 | 4028 ft | 192 kts | 109° |
| 2026-05-06 21:58 | 56.24890 | 92.17599 | 3905 ft | 192 kts | 110° |
| 2026-05-06 21:58 | 56.24384 | 92.19807 | 3774 ft | 185 kts | 112° |
| 2026-05-06 21:58 | 56.23886 | 92.21883 | 3482 ft | 177 kts | 112° |
| 2026-05-06 21:59 | 56.23408 | 92.23849 | 3269 ft | 161 kts | 113° |
| 2026-05-06 21:59 | 56.22992 | 92.25557 | 3187 ft | 139 kts | 112° |
| 2026-05-06 21:59 | 56.22612 | 92.27133 | 3192 ft | 136 kts | 112° |
| 2026-05-06 21:59 | 56.22357 | 92.28194 | 3115 ft | 136 kts | 112° |
| 2026-05-06 22:00 | 56.22122 | 92.29173 | 3014 ft | 135 kts | 112° |
| 2026-05-06 22:00 | 56.21748 | 92.30729 | 2833 ft | 135 kts | 112° |
| 2026-05-06 22:00 | 56.21376 | 92.32275 | 2655 ft | 134 kts | 112° |
| 2026-05-06 22:00 | 56.21007 | 92.33812 | 2478 ft | 134 kts | 112° |
| 2026-05-06 22:01 | 56.20642 | 92.35335 | 2302 ft | 133 kts | 112° |
| 2026-05-06 22:01 | 56.20275 | 92.36867 | 2125 ft | 133 kts | 112° |
| 2026-05-06 22:01 | 56.19911 | 92.38390 | 1948 ft | 133 kts | 113° |
| 2026-05-06 22:01 | 56.19542 | 92.39920 | 1770 ft | 132 kts | 112° |
| 2026-05-06 22:02 | 56.19179 | 92.41437 | 1595 ft | 132 kts | 113° |
| 2026-05-06 22:02 | 56.18821 | 92.42942 | 1419 ft | 132 kts | 112° |
| 2026-05-06 22:02 | 56.18463 | 92.44447 | 1245 ft | 131 kts | 112° |
| 2026-05-06 22:02 | 56.18102 | 92.45951 | 1068 ft | 129 kts | 112° |
| 2026-05-06 22:03 | 56.17759 | 92.47384 | 953 ft | 117 kts | 111° |
| 2026-05-06 22:03 | 56.17496 | 92.48471 | 948 ft | 69 kts | 112° |
| 2026-05-06 22:03 | 56.17342 | 92.49114 | 948 ft | 51 kts | 112° |
| 2026-05-06 22:03 | 56.17209 | 92.49674 | 948 ft | 47 kts | 113° |
| 2026-05-06 22:04 | 56.17106 | 92.50110 | 948 ft | 26 kts | 112° |
| 2026-05-06 22:04 | 56.17075 | 92.50248 | 947 ft | 5 kts | 103° |
| 2026-05-06 22:04 | 56.17088 | 92.50315 | 947 ft | 6 kts | 34° |
| 2026-05-06 22:04 | 56.17135 | 92.50355 | 947 ft | 8 kts | 22° |
| 2026-05-06 22:05 | 56.17191 | 92.50397 | 947 ft | 9 kts | 22° |
| 2026-05-06 22:05 | 56.17235 | 92.50427 | 947 ft | 6 kts | 2° |
| 2026-05-06 22:05 | 56.17268 | 92.50373 | 947 ft | 7 kts | 294° |
| 2026-05-06 22:05 | 56.17291 | 92.50279 | 947 ft | 8 kts | 292° |
| 2026-05-06 22:06 | 56.17317 | 92.50169 | 947 ft | 10 kts | 293° |
| 2026-05-06 22:06 | 56.17346 | 92.50047 | 947 ft | 11 kts | 292° |
| 2026-05-06 22:06 | 56.17378 | 92.49911 | 947 ft | 12 kts | 292° |
| 2026-05-06 22:06 | 56.17413 | 92.49764 | 947 ft | 13 kts | 292° |
| 2026-05-06 22:07 | 56.17450 | 92.49607 | 947 ft | 14 kts | 292° |
| 2026-05-06 22:07 | 56.17490 | 92.49442 | 947 ft | 14 kts | 292° |
| 2026-05-06 22:07 | 56.17531 | 92.49268 | 947 ft | 15 kts | 293° |
| 2026-05-06 22:07 | 56.17575 | 92.49088 | 947 ft | 15 kts | 292° |
| 2026-05-06 22:08 | 56.17619 | 92.48902 | 947 ft | 16 kts | 292° |
| 2026-05-06 22:08 | 56.17663 | 92.48712 | 947 ft | 16 kts | 292° |
| 2026-05-06 22:08 | 56.17710 | 92.48515 | 947 ft | 17 kts | 292° |
| 2026-05-06 22:08 | 56.17732 | 92.48425 | 947 ft | 4 kts | 298° |
| 2026-05-06 22:09 | 56.17764 | 92.48397 | 947 ft | 6 kts | 3° |
| 2026-05-06 22:09 | 56.17807 | 92.48425 | 947 ft | 7 kts | 23° |
| 2026-05-06 22:09 | 56.17859 | 92.48467 | 947 ft | 8 kts | 23° |
| 2026-05-06 22:09 | 56.17919 | 92.48513 | 947 ft | 10 kts | 23° |
| 2026-05-06 22:10 | 56.17948 | 92.48536 | 947 ft | 0 kts | 23° |
| 2026-05-06 22:10 | 56.17954 | 92.48540 | 947 ft | 0 kts | 23° |
| 2026-05-06 22:10 | 56.17954 | 92.48541 | 947 ft | 0 kts | 23° |